createdAt,value
2022-10-26T00:01:22.400Z,13.70
2022-10-26T00:03:50.717Z,13.80
2022-10-26T00:06:21.710Z,13.70
2022-10-26T00:08:51.181Z,13.60
2022-10-26T00:11:20.110Z,13.50
2022-10-26T00:13:49.441Z,13.60
2022-10-26T00:16:23.523Z,13.60
2022-10-26T00:18:51.630Z,13.60
2022-10-26T00:21:20.206Z,13.60
2022-10-26T00:23:49.110Z,13.60
2022-10-26T00:26:17.148Z,13.40
2022-10-26T00:28:45.148Z,13.20
2022-10-26T00:31:15.544Z,13.30
2022-10-26T00:33:43.747Z,13.10
2022-10-26T00:36:14.546Z,13.10
2022-10-26T00:38:46.319Z,13.20
2022-10-26T00:41:20.231Z,13.10
2022-10-26T00:43:49.106Z,13.10
2022-10-26T00:46:27.416Z,13.10
2022-10-26T00:49:01.699Z,13.20
2022-10-26T00:51:41.400Z,13.10
2022-10-26T00:54:20.608Z,13.20
2022-10-26T00:56:52.130Z,13.10
2022-10-26T00:59:22.636Z,13.00
2022-10-26T01:01:51.757Z,13.00
2022-10-26T01:04:20.645Z,13.00
2022-10-26T01:06:49.392Z,12.90
2022-10-26T01:09:18.643Z,12.90
2022-10-26T01:11:46.983Z,12.80
2022-10-26T01:14:17.317Z,12.80
2022-10-26T01:16:56.141Z,12.80
2022-10-26T01:19:24.523Z,12.80
2022-10-26T01:22:03.414Z,12.80
2022-10-26T01:25:03.030Z,12.80
2022-10-26T01:27:36.268Z,12.80
2022-10-26T01:30:34.598Z,12.80
2022-10-26T01:33:21.913Z,12.80
2022-10-26T01:39:10.488Z,12.80
2022-10-26T01:41:46.639Z,12.90
2022-10-26T01:44:21.978Z,12.90
2022-10-26T01:46:53.529Z,12.90
2022-10-26T01:49:26.352Z,12.90
2022-10-26T01:51:54.443Z,12.80
2022-10-26T01:54:22.499Z,12.70
2022-10-26T01:56:53.878Z,12.60
2022-10-26T01:59:31.215Z,12.50
2022-10-26T02:02:10.982Z,12.50
2022-10-26T02:04:59.082Z,12.50
2022-10-26T02:08:06.152Z,12.50
2022-10-26T02:11:05.136Z,12.50
2022-10-26T02:13:48.210Z,12.50
2022-10-26T02:16:40.833Z,12.50
2022-10-26T02:19:41.057Z,12.50
2022-10-26T02:22:25.479Z,12.50
2022-10-26T02:24:55.058Z,12.50
2022-10-26T02:27:34.507Z,12.40
2022-10-26T02:30:05.506Z,12.40
2022-10-26T02:32:38.273Z,12.40
2022-10-26T02:35:07.145Z,12.30
2022-10-26T02:37:38.047Z,12.30
2022-10-26T02:40:12.542Z,12.30
2022-10-26T02:42:45.633Z,12.30
2022-10-26T02:45:20.317Z,12.30
2022-10-26T02:47:49.511Z,12.30
2022-10-26T02:50:19.660Z,12.30
2022-10-26T02:53:17.159Z,12.20
2022-10-26T02:55:51.255Z,12.10
2022-10-26T02:58:31.237Z,12.10
2022-10-26T03:01:00.272Z,12.10
2022-10-26T03:03:29.318Z,12.00
2022-10-26T03:05:57.261Z,12.10
2022-10-26T03:08:25.663Z,12.10
2022-10-26T03:10:53.674Z,12.00
2022-10-26T03:13:22.314Z,12.00
2022-10-26T03:15:50.712Z,12.10
2022-10-26T03:18:18.654Z,12.00
2022-10-26T03:20:47.253Z,12.00
2022-10-26T03:23:15.320Z,11.90
2022-10-26T03:25:43.180Z,11.90
2022-10-26T03:28:11.749Z,11.80
2022-10-26T03:30:40.249Z,11.80
2022-10-26T03:33:08.684Z,11.80
2022-10-26T03:35:37.530Z,11.80
2022-10-26T03:38:05.690Z,11.80
2022-10-26T03:40:36.013Z,11.80
2022-10-26T03:43:04.375Z,11.80
2022-10-26T03:45:32.716Z,11.80
2022-10-26T03:48:01.151Z,11.80
2022-10-26T03:50:29.103Z,11.80
2022-10-26T03:52:56.980Z,11.90
2022-10-26T03:55:25.243Z,11.90
2022-10-26T03:57:53.089Z,11.80
2022-10-26T04:00:21.426Z,11.80
2022-10-26T04:02:57.921Z,11.80
2022-10-26T04:05:28.559Z,11.80
2022-10-26T04:08:03.291Z,11.80
2022-10-26T04:10:32.807Z,11.80
2022-10-26T04:13:01.415Z,11.80
2022-10-26T04:15:29.686Z,11.70
2022-10-26T04:17:59.208Z,11.70
2022-10-26T04:20:28.701Z,11.70
2022-10-26T04:23:01.953Z,11.70
2022-10-26T04:25:33.067Z,11.70
2022-10-26T04:28:02.960Z,11.70
2022-10-26T04:30:32.358Z,11.70
2022-10-26T04:33:00.849Z,11.70
2022-10-26T04:35:29.210Z,11.80
2022-10-26T04:38:02.211Z,11.80
2022-10-26T04:40:31.527Z,11.90
2022-10-26T04:42:59.707Z,11.80
2022-10-26T04:45:28.747Z,11.80
2022-10-26T04:48:15.976Z,11.90
2022-10-26T04:50:44.466Z,11.80
2022-10-26T04:53:12.529Z,11.60
2022-10-26T04:55:40.583Z,11.70
2022-10-26T04:58:58.427Z,11.60
2022-10-26T05:01:27.046Z,11.60
2022-10-26T05:03:56.225Z,11.60
2022-10-26T05:06:24.140Z,11.60
2022-10-26T05:08:52.164Z,11.50
2022-10-26T05:11:20.305Z,11.50
2022-10-26T05:13:49.267Z,11.50
2022-10-26T05:16:18.544Z,11.50
2022-10-26T05:18:51.961Z,11.40
2022-10-26T05:21:20.419Z,11.40
2022-10-26T05:23:55.633Z,11.50
2022-10-26T05:26:26.533Z,11.50
2022-10-26T05:28:54.839Z,11.40
2022-10-26T05:31:23.763Z,11.40
2022-10-26T05:33:52.716Z,11.40
2022-10-26T05:36:21.072Z,11.40
2022-10-26T05:38:49.170Z,11.40
2022-10-26T05:41:17.727Z,11.30
2022-10-26T05:43:48.786Z,11.50
2022-10-26T05:46:17.303Z,11.50
2022-10-26T05:48:45.194Z,11.40
2022-10-26T05:51:14.288Z,11.40
2022-10-26T05:53:42.219Z,11.50
2022-10-26T05:56:36.639Z,11.60
2022-10-26T05:59:16.331Z,11.60
2022-10-26T06:01:55.327Z,11.70
2022-10-26T06:04:48.081Z,11.80
2022-10-26T06:07:20.240Z,12.00
2022-10-26T06:09:49.527Z,12.20
2022-10-26T06:12:19.746Z,12.40
2022-10-26T06:14:48.757Z,12.60
2022-10-26T06:17:47.395Z,12.70
2022-10-26T06:20:44.875Z,12.70
2022-10-26T06:23:50.438Z,12.80
2022-10-26T06:26:44.733Z,12.90
2022-10-26T06:29:40.298Z,12.70
2022-10-26T06:32:10.701Z,12.80
2022-10-26T06:34:44.405Z,12.90
2022-10-26T06:37:14.009Z,13.00
2022-10-26T06:39:49.970Z,13.00
2022-10-26T06:42:21.789Z,13.20
2022-10-26T06:44:49.913Z,13.30
2022-10-26T06:47:31.387Z,13.50
2022-10-26T06:50:08.404Z,13.70
2022-10-26T06:52:48.446Z,13.60
2022-10-26T06:55:16.956Z,13.90
2022-10-26T06:57:45.815Z,14.00
2022-10-26T07:00:40.128Z,14.10
2022-10-26T07:03:09.129Z,14.30
2022-10-26T07:05:37.106Z,14.50
2022-10-26T07:08:06.199Z,14.60
2022-10-26T07:10:39.237Z,14.90
2022-10-26T07:13:07.138Z,15.20
2022-10-26T07:15:36.516Z,15.30
2022-10-26T07:18:07.282Z,15.10
2022-10-26T07:20:40.825Z,15.20
2022-10-26T07:23:13.648Z,15.10
2022-10-26T07:25:42.632Z,15.10
2022-10-26T07:28:11.661Z,15.40
2022-10-26T07:30:40.629Z,15.60
2022-10-26T07:33:12.416Z,16.00
2022-10-26T07:35:41.444Z,16.60
2022-10-26T07:38:10.790Z,16.70
2022-10-26T07:40:38.789Z,16.40
2022-10-26T07:43:07.677Z,16.50
2022-10-26T07:45:36.866Z,17.00
2022-10-26T07:48:04.915Z,16.90
2022-10-26T07:50:33.972Z,16.30
2022-10-26T07:53:02.559Z,15.70
2022-10-26T07:55:33.708Z,15.20
2022-10-26T07:58:01.970Z,15.50
2022-10-26T08:00:30.572Z,15.90
2022-10-26T08:02:58.639Z,16.70
2022-10-26T08:05:27.183Z,17.20
2022-10-26T08:07:58.561Z,17.50
2022-10-26T08:10:26.809Z,18.10
2022-10-26T08:12:54.723Z,18.50
2022-10-26T08:15:23.808Z,18.30
2022-10-26T08:17:52.790Z,18.10
2022-10-26T08:20:21.636Z,17.90
2022-10-26T08:22:50.039Z,18.20
2022-10-26T08:25:21.419Z,18.60
2022-10-26T08:27:50.704Z,18.80
2022-10-26T08:30:18.919Z,19.10
2022-10-26T08:32:47.083Z,19.00
2022-10-26T08:35:15.482Z,19.20
2022-10-26T08:37:44.017Z,19.70
2022-10-26T08:40:17.116Z,19.50
2022-10-26T08:42:49.326Z,20.10
2022-10-26T08:45:36.920Z,20.80
2022-10-26T08:48:15.652Z,20.90
2022-10-26T08:51:07.568Z,20.80
2022-10-26T08:53:41.703Z,20.90
2022-10-26T08:56:21.319Z,20.50
2022-10-26T08:58:56.451Z,20.20
2022-10-26T09:01:24.657Z,20.20
2022-10-26T09:03:52.896Z,20.50
2022-10-26T09:06:33.192Z,21.00
2022-10-26T09:09:20.357Z,21.50
2022-10-26T09:12:13.954Z,21.90
2022-10-26T09:15:14.971Z,22.20
2022-10-26T09:17:47.180Z,22.50
2022-10-26T09:20:44.112Z,23.10
2022-10-26T09:23:30.936Z,23.30
2022-10-26T09:26:02.637Z,23.50
2022-10-26T09:28:35.419Z,23.00
2022-10-26T09:31:04.873Z,23.00
2022-10-26T09:33:39.429Z,22.20
2022-10-26T09:36:16.061Z,22.20
2022-10-26T09:39:04.019Z,22.30
2022-10-26T09:41:40.175Z,22.40
2022-10-26T09:44:39.493Z,22.50
2022-10-26T09:47:25.989Z,22.50
2022-10-26T09:50:01.372Z,21.90
2022-10-26T09:52:31.037Z,21.80
2022-10-26T09:54:58.960Z,21.80
2022-10-26T09:57:27.288Z,21.80
2022-10-26T09:59:56.844Z,22.10
2022-10-26T10:02:50.666Z,22.20
2022-10-26T10:05:52.162Z,22.40
2022-10-26T10:08:24.006Z,22.30
2022-10-26T10:11:01.316Z,22.40
2022-10-26T10:13:32.821Z,22.30
2022-10-26T10:16:16.052Z,22.10
2022-10-26T10:18:59.953Z,22.20
2022-10-26T10:21:44.734Z,22.40
2022-10-26T10:24:32.618Z,22.20
2022-10-26T10:27:00.665Z,22.30
2022-10-26T10:29:33.994Z,22.40
2022-10-26T10:32:03.880Z,22.60
2022-10-26T10:34:33.377Z,22.40
2022-10-26T10:37:02.411Z,22.30
2022-10-26T10:39:39.883Z,22.40
2022-10-26T10:42:27.974Z,22.60
2022-10-26T10:44:57.578Z,22.80
2022-10-26T10:47:29.850Z,22.60
2022-10-26T10:50:05.840Z,22.70
2022-10-26T10:52:35.929Z,22.70
2022-10-26T10:55:13.785Z,22.80
2022-10-26T10:58:00.426Z,22.70
2022-10-26T11:00:29.851Z,22.70
2022-10-26T11:03:32.795Z,22.70
2022-10-26T11:06:20.154Z,22.80
2022-10-26T11:08:53.947Z,22.80
2022-10-26T11:11:29.136Z,22.60
2022-10-26T11:14:06.600Z,22.60
2022-10-26T11:16:44.819Z,22.50
2022-10-26T11:19:49.111Z,22.50
2022-10-26T11:22:28.098Z,22.50
2022-10-26T11:24:59.622Z,22.50
2022-10-26T11:27:31.866Z,22.60
2022-10-26T11:30:06.482Z,22.50
2022-10-26T11:32:47.771Z,22.40
2022-10-26T11:35:28.249Z,22.40
2022-10-26T11:38:04.511Z,22.30
2022-10-26T11:40:58.838Z,22.40
2022-10-26T11:43:44.341Z,22.40
2022-10-26T11:46:29.893Z,22.60
2022-10-26T11:49:11.552Z,22.60
2022-10-26T11:51:52.759Z,22.50
2022-10-26T11:54:30.535Z,22.60
2022-10-26T11:56:59.826Z,22.70
2022-10-26T11:59:36.951Z,22.70
2022-10-26T12:02:13.079Z,22.80
2022-10-26T12:04:45.216Z,22.80
2022-10-26T12:07:23.956Z,22.70
2022-10-26T12:09:53.008Z,22.70
2022-10-26T12:12:38.918Z,22.70
2022-10-26T12:15:35.149Z,22.50
2022-10-26T12:18:31.699Z,22.70
2022-10-26T12:21:13.742Z,22.70
2022-10-26T12:24:02.333Z,22.70
2022-10-26T12:26:33.488Z,22.80
2022-10-26T12:29:04.406Z,22.80
2022-10-26T12:31:38.325Z,22.80
2022-10-26T12:34:14.803Z,22.70
2022-10-26T12:37:04.311Z,22.70
2022-10-26T12:39:37.084Z,22.70
2022-10-26T12:42:05.371Z,22.80
2022-10-26T12:44:45.797Z,22.90
2022-10-26T12:47:29.061Z,23.00
2022-10-26T12:50:07.169Z,22.90
2022-10-26T12:52:57.891Z,22.80
2022-10-26T12:55:48.111Z,22.80
2022-10-26T12:58:34.998Z,22.80
2022-10-26T13:01:04.066Z,22.70
2022-10-26T13:03:35.027Z,22.80
2022-10-26T13:06:34.055Z,22.80
2022-10-26T13:09:21.026Z,22.90
2022-10-26T13:11:57.503Z,22.90
2022-10-26T13:14:34.183Z,22.90
2022-10-26T13:17:05.463Z,22.90
2022-10-26T13:19:43.151Z,22.90
2022-10-26T13:22:22.558Z,22.90
2022-10-26T13:25:23.609Z,22.90
2022-10-26T13:28:05.165Z,22.90
2022-10-26T13:30:42.300Z,22.80
2022-10-26T13:33:17.918Z,22.60
2022-10-26T13:35:47.374Z,22.70
2022-10-26T13:38:20.649Z,22.70
2022-10-26T13:40:50.470Z,22.70
2022-10-26T13:43:25.110Z,22.80
2022-10-26T13:46:01.408Z,22.70
2022-10-26T13:48:34.892Z,22.60
2022-10-26T13:51:10.597Z,22.70
2022-10-26T13:53:43.366Z,22.60
2022-10-26T13:56:34.324Z,22.60
2022-10-26T13:59:06.761Z,22.60
2022-10-26T14:01:35.720Z,22.60
2022-10-26T14:04:18.252Z,22.70
2022-10-26T14:06:50.898Z,22.70
2022-10-26T14:09:21.098Z,22.70
2022-10-26T14:12:02.001Z,22.70
2022-10-26T14:14:33.812Z,22.60
2022-10-26T14:17:02.757Z,22.60
2022-10-26T14:19:39.993Z,22.70
2022-10-26T14:22:08.202Z,22.80
2022-10-26T14:24:48.195Z,22.70
2022-10-26T14:27:17.593Z,22.70
2022-10-26T14:29:58.376Z,22.80
2022-10-26T14:32:34.108Z,22.80
2022-10-26T14:35:03.085Z,22.70
2022-10-26T14:37:37.073Z,22.70
2022-10-26T14:40:06.852Z,22.50
2022-10-26T14:42:41.158Z,22.40
2022-10-26T14:45:29.364Z,22.40
2022-10-26T14:48:00.229Z,22.40
2022-10-26T14:50:33.364Z,22.40
2022-10-26T14:53:14.974Z,22.40
2022-10-26T14:55:52.733Z,22.40
2022-10-26T15:01:36.249Z,22.30
2022-10-26T15:04:07.244Z,22.20
2022-10-26T15:06:44.739Z,22.20
2022-10-26T15:09:33.114Z,22.10
2022-10-26T15:12:03.020Z,22.00
2022-10-26T15:14:32.207Z,21.90
2022-10-26T15:17:01.152Z,21.90
2022-10-26T15:19:29.956Z,21.80
2022-10-26T15:21:58.366Z,21.80
2022-10-26T15:24:39.025Z,21.70
2022-10-26T15:27:16.831Z,21.70
2022-10-26T15:29:51.695Z,21.60
2022-10-26T15:32:29.205Z,21.60
2022-10-26T15:35:18.370Z,21.50
2022-10-26T15:37:47.905Z,21.40
2022-10-26T15:40:16.602Z,21.30
2022-10-26T15:42:48.347Z,21.20
2022-10-26T15:45:25.595Z,21.10
2022-10-26T15:47:56.804Z,21.10
2022-10-26T15:50:26.924Z,20.90
2022-10-26T15:53:01.939Z,20.80
2022-10-26T15:55:31.207Z,20.60
2022-10-26T15:57:59.094Z,20.50
2022-10-26T16:00:27.649Z,20.30
2022-10-26T16:02:56.154Z,20.20
2022-10-26T16:05:24.203Z,20.00
2022-10-26T16:07:52.657Z,19.80
2022-10-26T16:10:24.952Z,19.60
2022-10-26T16:12:53.252Z,19.50
2022-10-26T16:15:24.525Z,19.30
2022-10-26T16:17:52.877Z,19.20
2022-10-26T16:20:24.881Z,19.10
2022-10-26T16:22:53.803Z,19.00
2022-10-26T16:25:26.648Z,18.70
2022-10-26T16:27:55.806Z,18.60
2022-10-26T16:30:30.114Z,18.50
2022-10-26T16:32:58.652Z,18.40
2022-10-26T16:35:26.734Z,18.40
2022-10-26T16:37:55.688Z,18.10
2022-10-26T16:40:25.060Z,18.10
2022-10-26T16:42:53.227Z,17.90
2022-10-26T16:45:21.932Z,17.90
2022-10-26T16:47:50.195Z,17.60
2022-10-26T16:50:21.255Z,17.70
2022-10-26T16:52:49.400Z,17.70
2022-10-26T16:55:18.641Z,17.70
2022-10-26T16:57:46.602Z,17.60
2022-10-26T17:00:15.125Z,17.50
2022-10-26T17:02:44.270Z,17.40
2022-10-26T17:05:12.706Z,17.40
2022-10-26T17:07:40.686Z,17.30
2022-10-26T17:10:09.156Z,17.20
2022-10-26T17:12:37.487Z,17.10
2022-10-26T17:15:05.830Z,17.10
2022-10-26T17:17:34.714Z,17.10
2022-10-26T17:20:03.249Z,17.20
2022-10-26T17:22:31.736Z,17.20
2022-10-26T17:25:00.128Z,17.10
2022-10-26T17:27:28.322Z,17.10
2022-10-26T17:29:56.603Z,16.90
2022-10-26T17:32:24.920Z,16.90
2022-10-26T17:34:52.828Z,16.90
2022-10-26T17:37:21.251Z,17.00
2022-10-26T17:39:49.750Z,17.00
2022-10-26T17:42:17.773Z,17.00
2022-10-26T17:44:46.140Z,17.00
2022-10-26T17:47:14.342Z,16.80
2022-10-26T17:49:42.711Z,16.70
2022-10-26T17:52:11.730Z,16.70
2022-10-26T17:54:40.049Z,16.70
2022-10-26T17:57:08.428Z,16.70
2022-10-26T17:59:36.685Z,16.60
2022-10-26T18:02:05.270Z,16.60
2022-10-26T18:04:33.788Z,16.60
2022-10-26T18:07:01.940Z,16.50
2022-10-26T18:09:30.593Z,16.40
2022-10-26T18:11:58.735Z,16.20
2022-10-26T18:14:26.646Z,16.10
2022-10-26T18:16:55.537Z,16.20
2022-10-26T18:19:23.913Z,16.30
2022-10-26T18:21:51.820Z,16.30
2022-10-26T18:24:20.417Z,16.20
2022-10-26T18:26:48.328Z,16.20
2022-10-26T18:29:16.850Z,16.20
2022-10-26T18:31:46.142Z,16.30
2022-10-26T18:34:14.193Z,16.20
2022-10-26T18:36:42.147Z,16.10
2022-10-26T18:39:10.223Z,16.10
2022-10-26T18:41:38.680Z,16.00
2022-10-26T18:44:08.903Z,16.00
2022-10-26T18:46:40.978Z,15.90
2022-10-26T18:49:09.858Z,15.90
2022-10-26T18:51:38.432Z,15.90
2022-10-26T18:54:06.489Z,15.90
2022-10-26T18:56:35.068Z,15.90
2022-10-26T18:59:03.725Z,15.90
2022-10-26T19:01:34.728Z,15.80
2022-10-26T19:04:06.147Z,15.80
2022-10-26T19:06:35.795Z,15.60
2022-10-26T19:09:05.676Z,15.70
2022-10-26T19:11:35.413Z,15.70
2022-10-26T19:14:03.673Z,15.70
2022-10-26T19:16:45.307Z,15.70
2022-10-26T19:19:16.412Z,15.70
2022-10-26T19:21:49.407Z,15.80
2022-10-26T19:24:20.103Z,15.70
2022-10-26T19:26:50.473Z,15.60
2022-10-26T19:29:19.277Z,15.60
2022-10-26T19:31:50.463Z,15.50
2022-10-26T19:34:19.085Z,15.60
2022-10-26T19:36:47.749Z,15.60
2022-10-26T19:39:17.718Z,15.60
2022-10-26T19:41:46.967Z,15.60
2022-10-26T19:44:17.213Z,15.60
2022-10-26T19:46:47.063Z,15.50
2022-10-26T19:49:17.607Z,15.40
2022-10-26T19:51:46.930Z,15.30
2022-10-26T19:54:15.385Z,15.20
2022-10-26T19:56:43.298Z,15.20
2022-10-26T19:59:11.891Z,15.20
2022-10-26T20:01:40.959Z,15.10
2022-10-26T20:04:09.104Z,15.00
2022-10-26T20:06:37.805Z,14.90
2022-10-26T20:09:06.003Z,14.80
2022-10-26T20:11:36.643Z,14.80
2022-10-26T20:14:07.615Z,14.70
2022-10-26T20:16:35.630Z,14.70
2022-10-26T20:19:03.616Z,14.70
2022-10-26T20:21:32.381Z,14.60
2022-10-26T20:24:00.320Z,14.60
2022-10-26T20:26:28.878Z,14.60
2022-10-26T20:28:57.536Z,14.60
2022-10-26T20:31:25.563Z,14.60
2022-10-26T20:33:54.156Z,14.60
2022-10-26T20:36:30.860Z,14.60
2022-10-26T20:38:59.662Z,14.50
2022-10-26T20:41:28.294Z,14.40
2022-10-26T20:43:58.046Z,14.40
2022-10-26T20:46:27.922Z,14.40
2022-10-26T20:48:57.118Z,14.50
2022-10-26T20:52:20.052Z,14.60
2022-10-26T20:54:48.369Z,14.60
2022-10-26T20:57:20.986Z,14.50
2022-10-26T20:59:52.630Z,14.50
2022-10-26T21:02:22.371Z,14.40
2022-10-26T21:04:50.387Z,14.40
2022-10-26T21:07:18.800Z,14.40
2022-10-26T21:09:47.247Z,14.30
2022-10-26T21:12:15.296Z,14.20
2022-10-26T21:14:43.268Z,14.20
2022-10-26T21:17:12.154Z,14.20
2022-10-26T21:19:41.923Z,14.20
2022-10-26T21:22:09.865Z,14.00
2022-10-26T21:24:37.905Z,13.80
2022-10-26T21:27:07.360Z,13.70
2022-10-26T21:29:36.268Z,13.70
2022-10-26T21:32:05.098Z,13.60
2022-10-26T21:34:33.038Z,13.70
2022-10-26T21:37:00.940Z,13.70
2022-10-26T21:39:29.801Z,13.70
2022-10-26T21:41:58.178Z,13.80
2022-10-26T21:44:40.438Z,13.80
2022-10-26T21:47:10.999Z,13.80
2022-10-26T21:52:13.444Z,13.80
2022-10-26T21:54:41.344Z,13.80
2022-10-26T21:57:09.810Z,13.80
2022-10-26T21:59:37.842Z,13.90
2022-10-26T22:02:05.988Z,13.90
2022-10-26T22:04:34.753Z,13.90
2022-10-26T22:07:03.319Z,13.90
2022-10-26T22:09:32.820Z,13.90
2022-10-26T22:12:04.077Z,13.90
2022-10-26T22:14:32.090Z,13.90
2022-10-26T22:17:01.339Z,13.90
2022-10-26T22:19:29.898Z,13.90
2022-10-26T22:21:57.752Z,13.80
2022-10-26T22:24:25.668Z,13.80
2022-10-26T22:26:53.587Z,13.80
2022-10-26T22:29:21.653Z,13.60
2022-10-26T22:31:50.791Z,13.60
2022-10-26T22:34:18.837Z,13.60
2022-10-26T22:36:47.330Z,13.50
2022-10-26T22:39:15.244Z,13.40
2022-10-26T22:41:43.448Z,13.40
2022-10-26T22:44:12.230Z,13.50
2022-10-26T22:46:40.784Z,13.50
2022-10-26T22:49:09.194Z,13.40
2022-10-26T22:51:37.154Z,13.40
2022-10-26T22:54:06.357Z,13.30
2022-10-26T22:56:36.208Z,13.30
2022-10-26T22:59:05.609Z,13.30
2022-10-26T23:01:46.690Z,13.40
2022-10-26T23:04:15.196Z,13.30
2022-10-26T23:06:43.150Z,13.30
2022-10-26T23:09:11.632Z,13.10
2022-10-26T23:11:39.652Z,13.00
2022-10-26T23:14:09.328Z,13.00
2022-10-26T23:16:37.878Z,13.00
2022-10-26T23:19:05.890Z,13.10
2022-10-26T23:21:34.341Z,13.00
2022-10-26T23:24:02.317Z,13.00
2022-10-26T23:26:31.381Z,13.00
2022-10-26T23:28:59.316Z,12.90
2022-10-26T23:31:28.629Z,12.90
2022-10-26T23:33:57.336Z,12.90
2022-10-26T23:36:26.019Z,12.80
2022-10-26T23:38:54.046Z,12.70
2022-10-26T23:41:22.408Z,12.70
2022-10-26T23:43:51.046Z,12.80
2022-10-26T23:46:19.514Z,12.80
2022-10-26T23:48:47.888Z,12.80
2022-10-26T23:51:16.194Z,12.80
2022-10-26T23:53:44.309Z,12.80
2022-10-26T23:56:12.191Z,12.80
2022-10-26T23:58:53.587Z,12.70
